createdAt,value
2022-12-01T00:01:02.276Z,1.04
2022-12-01T00:03:33.338Z,1.02
2022-12-01T00:06:08.006Z,1.06
2022-12-01T00:08:35.066Z,1.03
2022-12-01T00:11:10.223Z,1.09
2022-12-01T00:13:37.121Z,1.01
2022-12-01T00:16:14.403Z,1.14
2022-12-01T00:18:41.347Z,1.03
2022-12-01T00:21:14.765Z,0.97
2022-12-01T00:23:45.037Z,1.00
2022-12-01T00:26:11.533Z,0.92
2022-12-01T00:28:38.000Z,0.96
2022-12-01T00:31:12.270Z,0.92
2022-12-01T00:33:39.794Z,1.01
2022-12-01T00:36:07.237Z,1.02
2022-12-01T00:38:34.444Z,0.91
2022-12-01T00:41:01.127Z,0.89
2022-12-01T00:43:27.669Z,0.98
2022-12-01T00:45:55.226Z,1.06
2022-12-01T00:48:22.493Z,1.02
2022-12-01T00:50:51.669Z,0.92
2022-12-01T00:53:18.264Z,0.92
2022-12-01T00:55:45.026Z,0.93
2022-12-01T00:58:11.579Z,0.95
2022-12-01T01:00:38.760Z,0.87
2022-12-01T01:03:06.802Z,0.93
2022-12-01T01:05:40.345Z,0.90
2022-12-01T01:08:08.972Z,1.00
2022-12-01T01:10:40.704Z,0.84
2022-12-01T01:13:07.433Z,0.92
2022-12-01T01:15:34.216Z,0.92
2022-12-01T01:18:01.346Z,0.86
2022-12-01T01:20:28.297Z,1.04
2022-12-01T01:22:54.814Z,1.01
2022-12-01T01:25:21.613Z,0.92
2022-12-01T01:27:48.224Z,0.85
2022-12-01T01:30:15.524Z,1.10
2022-12-01T01:32:42.006Z,1.02
2022-12-01T01:35:08.935Z,1.00
2022-12-01T01:37:35.426Z,0.90
2022-12-01T01:40:01.942Z,0.97
2022-12-01T01:42:28.509Z,0.90
2022-12-01T01:44:58.044Z,0.78
2022-12-01T01:47:36.123Z,0.95
2022-12-01T01:50:09.809Z,1.10
2022-12-01T01:52:43.267Z,0.97
2022-12-01T01:55:10.101Z,0.86
2022-12-01T01:57:37.795Z,0.84
2022-12-01T02:00:10.065Z,0.84
2022-12-01T02:02:44.760Z,0.95
2022-12-01T02:05:17.285Z,0.88
2022-12-01T02:07:45.528Z,0.84
2022-12-01T02:10:15.328Z,0.99
2022-12-01T02:13:06.537Z,1.05
2022-12-01T02:15:35.931Z,0.96
2022-12-01T02:18:44.185Z,0.92
2022-12-01T02:21:29.738Z,1.02
2022-12-01T02:23:56.149Z,0.88
2022-12-01T02:26:43.930Z,0.88
2022-12-01T02:29:16.618Z,0.75
2022-12-01T02:31:55.279Z,0.84
2022-12-01T02:34:29.026Z,0.84
2022-12-01T02:37:09.159Z,0.81
2022-12-01T02:39:47.823Z,0.84
2022-12-01T02:42:40.286Z,0.74
2022-12-01T02:45:14.047Z,0.79
2022-12-01T02:47:42.031Z,0.69
2022-12-01T02:50:10.716Z,0.68
2022-12-01T02:52:38.674Z,0.67
2022-12-01T02:55:05.847Z,0.83
2022-12-01T02:57:32.335Z,0.83
2022-12-01T03:00:00.328Z,0.80
2022-12-01T03:02:53.220Z,0.77
2022-12-01T03:05:25.100Z,0.72
2022-12-01T03:07:58.577Z,0.76
2022-12-01T03:10:32.168Z,0.80
2022-12-01T03:13:15.826Z,0.73
2022-12-01T03:16:10.268Z,0.68
2022-12-01T03:18:40.717Z,0.68
2022-12-01T03:21:12.395Z,0.73
2022-12-01T03:23:58.439Z,0.68
2022-12-01T03:26:29.379Z,0.65
2022-12-01T03:28:58.771Z,0.66
2022-12-01T03:31:33.114Z,0.68
2022-12-01T03:34:08.033Z,0.76
2022-12-01T03:36:42.719Z,0.67
2022-12-01T03:39:15.358Z,0.82
2022-12-01T03:41:48.527Z,0.79
2022-12-01T03:44:20.577Z,0.78
2022-12-01T03:47:24.926Z,0.73
2022-12-01T03:49:54.114Z,0.77
2022-12-01T03:52:58.028Z,0.96
2022-12-01T03:55:28.240Z,0.93
2022-12-01T03:58:22.461Z,0.83
2022-12-01T04:00:53.275Z,0.82
2022-12-01T04:03:25.000Z,0.95
2022-12-01T04:05:51.884Z,0.97
2022-12-01T04:08:18.790Z,0.82
2022-12-01T04:10:45.290Z,0.83
2022-12-01T04:13:23.214Z,0.85
2022-12-01T04:15:54.476Z,0.80
2022-12-01T04:18:21.533Z,0.84
2022-12-01T04:20:49.298Z,0.89
2022-12-01T04:23:35.863Z,0.84
2022-12-01T04:26:04.738Z,0.83
2022-12-01T04:28:31.708Z,0.88
2022-12-01T04:30:58.361Z,0.76
2022-12-01T04:33:24.968Z,0.80
2022-12-01T04:35:59.382Z,0.71
2022-12-01T04:38:30.643Z,0.70
2022-12-01T04:40:57.493Z,0.84
2022-12-01T04:43:24.020Z,0.77
2022-12-01T04:45:50.523Z,0.73
2022-12-01T04:48:17.006Z,0.78
2022-12-01T04:50:43.496Z,0.65
2022-12-01T04:53:10.024Z,0.65
2022-12-01T04:55:39.032Z,0.69
2022-12-01T04:58:06.061Z,0.71
2022-12-01T05:00:33.128Z,0.90
2022-12-01T05:03:00.190Z,0.79
2022-12-01T05:05:26.773Z,0.65
2022-12-01T05:07:53.352Z,0.66
2022-12-01T05:10:20.206Z,0.71
2022-12-01T05:12:46.734Z,0.82
2022-12-01T05:15:13.694Z,0.73
2022-12-01T05:17:40.342Z,0.69
2022-12-01T05:20:26.297Z,0.72
2022-12-01T05:23:09.816Z,0.78
2022-12-01T05:25:39.427Z,0.76
2022-12-01T05:28:06.668Z,0.78
2022-12-01T05:30:33.174Z,0.79
2022-12-01T05:32:59.855Z,0.74
2022-12-01T05:35:26.438Z,0.76
2022-12-01T05:37:52.959Z,0.73
2022-12-01T05:40:19.586Z,0.73
2022-12-01T05:42:46.182Z,0.73
2022-12-01T05:45:12.767Z,0.71
2022-12-01T05:47:39.258Z,0.74
2022-12-01T05:50:06.537Z,0.71
2022-12-01T05:52:34.855Z,0.76
2022-12-01T05:55:02.387Z,0.74
2022-12-01T05:57:28.870Z,0.75
2022-12-01T05:59:55.407Z,0.67
2022-12-01T06:02:22.012Z,0.69
2022-12-01T06:04:48.602Z,0.70
2022-12-01T06:07:15.106Z,0.92
2022-12-01T06:09:41.608Z,0.77
2022-12-01T06:12:08.157Z,0.78
2022-12-01T06:14:34.622Z,0.98
2022-12-01T06:17:01.223Z,0.78
2022-12-01T06:19:27.747Z,0.98
2022-12-01T06:21:54.345Z,1.00
2022-12-01T06:24:20.875Z,0.84
2022-12-01T06:26:47.359Z,0.87
2022-12-01T06:29:14.162Z,0.78
2022-12-01T06:31:40.702Z,0.82
2022-12-01T06:34:07.221Z,0.83
2022-12-01T06:36:33.725Z,0.81
2022-12-01T06:39:00.536Z,0.84
2022-12-01T06:41:27.138Z,0.75
2022-12-01T06:43:54.740Z,0.83
2022-12-01T06:46:21.338Z,0.77
2022-12-01T06:48:49.194Z,0.59
2022-12-01T06:51:15.887Z,0.68
2022-12-01T06:53:42.344Z,0.67
2022-12-01T06:56:08.987Z,0.72
2022-12-01T06:58:35.856Z,0.61
2022-12-01T07:01:09.724Z,0.60
2022-12-01T07:03:36.422Z,0.57
2022-12-01T07:06:03.571Z,0.59
2022-12-01T07:08:32.146Z,0.56
2022-12-01T07:11:03.380Z,0.53
2022-12-01T07:13:33.300Z,0.61
2022-12-01T07:16:00.187Z,0.58
2022-12-01T07:18:26.723Z,0.59
2022-12-01T07:20:53.230Z,0.57
2022-12-01T07:23:21.447Z,0.61
2022-12-01T07:25:47.975Z,0.74
2022-12-01T07:28:14.551Z,0.67
2022-12-01T07:30:41.062Z,0.69
2022-12-01T07:33:07.552Z,0.80
2022-12-01T07:35:34.196Z,0.73
2022-12-01T07:38:00.670Z,0.86
2022-12-01T07:40:27.319Z,0.67
2022-12-01T07:42:53.887Z,0.59
2022-12-01T07:45:20.372Z,0.76
2022-12-01T07:47:46.898Z,0.83
2022-12-01T07:50:13.610Z,0.65
2022-12-01T07:52:40.098Z,0.71
2022-12-01T07:55:07.024Z,0.94
2022-12-01T07:57:33.583Z,0.89
2022-12-01T08:00:00.199Z,0.64
2022-12-01T08:02:26.743Z,0.74
2022-12-01T08:04:53.259Z,0.80
2022-12-01T08:07:19.829Z,0.67
2022-12-01T08:09:46.556Z,0.66
2022-12-01T08:12:13.219Z,0.71
2022-12-01T08:14:39.843Z,0.81
2022-12-01T08:17:06.358Z,0.91
2022-12-01T08:19:32.909Z,0.84
2022-12-01T08:21:59.495Z,0.93
2022-12-01T08:24:26.288Z,1.01
2022-12-01T08:26:52.856Z,0.95
2022-12-01T08:29:20.517Z,0.90
2022-12-01T08:31:48.459Z,0.86
2022-12-01T08:34:15.266Z,1.07
2022-12-01T08:36:41.848Z,1.00
2022-12-01T08:39:09.102Z,1.11
2022-12-01T08:41:35.703Z,0.84
2022-12-01T08:44:02.222Z,0.84
2022-12-01T08:46:32.464Z,0.93
2022-12-01T08:48:59.234Z,0.83
2022-12-01T08:51:26.663Z,0.91
2022-12-01T08:53:55.710Z,0.93
2022-12-01T08:56:25.355Z,1.08
2022-12-01T08:58:51.994Z,0.85
2022-12-01T09:01:19.475Z,0.86
2022-12-01T09:03:46.614Z,0.76
2022-12-01T09:06:16.784Z,0.91
2022-12-01T09:08:43.969Z,0.92
2022-12-01T09:11:13.878Z,0.86
2022-12-01T09:13:41.725Z,0.90
2022-12-01T09:16:12.620Z,0.94
2022-12-01T09:18:39.567Z,0.84
2022-12-01T09:21:18.534Z,0.86
2022-12-01T09:23:45.343Z,0.82
2022-12-01T09:26:13.922Z,0.83
2022-12-01T09:28:40.895Z,0.72
2022-12-01T09:31:09.588Z,0.83
2022-12-01T09:33:36.754Z,1.11
2022-12-01T09:36:04.844Z,0.90
2022-12-01T09:38:33.816Z,0.90
2022-12-01T09:41:04.540Z,0.81
2022-12-01T09:43:51.278Z,0.87
2022-12-01T09:46:27.231Z,0.90
2022-12-01T09:48:57.384Z,1.03
2022-12-01T09:51:28.264Z,0.92
2022-12-01T09:53:58.762Z,0.92
2022-12-01T09:56:29.268Z,0.88
2022-12-01T09:59:01.057Z,0.82
2022-12-01T10:01:38.409Z,0.90
2022-12-01T10:04:24.048Z,0.73
2022-12-01T10:07:02.772Z,0.72
2022-12-01T10:09:43.850Z,0.66
2022-12-01T10:12:19.446Z,0.68
2022-12-01T10:14:47.671Z,0.77
2022-12-01T10:17:22.878Z,0.83
2022-12-01T10:20:20.263Z,0.75
2022-12-01T10:23:00.454Z,0.79
2022-12-01T10:25:32.495Z,0.71
2022-12-01T10:28:50.506Z,0.95
2022-12-01T10:31:35.519Z,0.74
2022-12-01T10:34:09.478Z,0.84
2022-12-01T10:36:36.246Z,0.80
2022-12-01T10:39:08.847Z,0.75
2022-12-01T10:41:39.274Z,0.74
2022-12-01T10:44:07.129Z,0.79
2022-12-01T10:46:45.631Z,0.79
2022-12-01T10:49:14.501Z,0.85
2022-12-01T10:51:51.808Z,0.75
2022-12-01T10:54:19.082Z,0.70
2022-12-01T10:56:48.913Z,0.71
2022-12-01T10:59:36.401Z,0.77
2022-12-01T11:02:05.380Z,0.75
2022-12-01T11:04:45.330Z,0.75
2022-12-01T11:07:22.617Z,0.73
2022-12-01T11:10:13.776Z,0.82
2022-12-01T11:12:41.220Z,0.71
2022-12-01T11:15:08.810Z,0.72
2022-12-01T11:17:40.263Z,0.90
2022-12-01T11:20:31.160Z,0.90
2022-12-01T11:23:09.844Z,0.75
2022-12-01T11:25:36.696Z,0.69
2022-12-01T11:28:04.653Z,0.67
2022-12-01T11:30:32.888Z,0.75
2022-12-01T11:33:03.593Z,0.74
2022-12-01T11:35:33.210Z,0.74
2022-12-01T11:40:57.691Z,0.60
2022-12-01T11:43:31.925Z,0.60
2022-12-01T11:46:03.841Z,0.58
2022-12-01T11:48:34.595Z,0.65
2022-12-01T11:51:32.996Z,0.65
2022-12-01T11:54:22.218Z,0.63
2022-12-01T11:57:17.446Z,0.73
2022-12-01T11:59:36.881Z,0.66
2022-12-01T12:02:36.178Z,0.68
2022-12-01T12:05:13.088Z,0.71
2022-12-01T12:07:58.186Z,0.77
2022-12-01T12:10:33.786Z,0.76
2022-12-01T12:13:05.515Z,1.01
2022-12-01T12:15:57.932Z,0.78
2022-12-01T12:19:02.770Z,0.75
2022-12-01T12:21:41.754Z,0.72
2022-12-01T12:24:50.095Z,0.77
2022-12-01T12:27:41.400Z,0.66
2022-12-01T12:30:21.886Z,0.58
2022-12-01T12:33:01.598Z,0.72
2022-12-01T12:35:40.779Z,0.61
2022-12-01T12:38:31.956Z,0.65
2022-12-01T12:41:39.238Z,0.80
2022-12-01T12:44:37.063Z,0.71
2022-12-01T12:47:22.710Z,0.86
2022-12-01T12:50:12.632Z,0.75
2022-12-01T12:52:46.125Z,0.67
2022-12-01T12:55:13.759Z,0.59
2022-12-01T12:57:47.039Z,0.60
2022-12-01T13:00:19.290Z,0.61
2022-12-01T13:03:11.577Z,0.55
2022-12-01T13:06:13.517Z,0.80
2022-12-01T13:08:50.085Z,0.65
2022-12-01T13:11:24.045Z,0.81
2022-12-01T13:14:18.715Z,0.56
2022-12-01T13:16:50.370Z,0.69
2022-12-01T13:19:31.044Z,0.63
2022-12-01T13:22:00.436Z,0.79
2022-12-01T13:24:29.465Z,0.53
2022-12-01T13:27:03.362Z,0.56
2022-12-01T13:29:37.505Z,0.71
2022-12-01T13:32:35.088Z,0.77
2022-12-01T13:35:06.484Z,0.58
2022-12-01T13:37:37.011Z,0.56
2022-12-01T13:40:23.388Z,0.57
2022-12-01T13:43:07.050Z,0.60
2022-12-01T13:45:38.600Z,0.70
2022-12-01T13:48:08.769Z,0.65
2022-12-01T13:50:43.113Z,0.49
2022-12-01T13:53:32.738Z,0.64
2022-12-01T13:56:27.371Z,0.47
2022-12-01T13:58:54.724Z,0.38
2022-12-01T14:01:21.705Z,0.50
2022-12-01T14:04:02.646Z,0.37
2022-12-01T14:06:51.410Z,0.55
2022-12-01T14:09:37.794Z,0.52
2022-12-01T14:12:06.344Z,0.38
2022-12-01T14:14:37.952Z,0.36
2022-12-01T14:17:05.413Z,0.29
2022-12-01T14:19:42.353Z,0.40
2022-12-01T14:22:28.789Z,0.29
2022-12-01T14:24:55.624Z,0.30
2022-12-01T14:27:43.687Z,0.42
2022-12-01T14:30:41.510Z,0.28
2022-12-01T14:33:39.413Z,0.21
2022-12-01T14:36:25.353Z,0.20
2022-12-01T14:38:58.149Z,0.23
2022-12-01T14:41:27.851Z,0.20
2022-12-01T14:44:06.683Z,0.09
2022-12-01T14:46:39.985Z,0.18
2022-12-01T14:49:12.783Z,0.30
2022-12-01T14:51:47.402Z,0.14
2022-12-01T14:54:29.058Z,0.02
2022-12-01T14:57:04.345Z,0.08
2022-12-01T14:59:32.702Z,0.25
2022-12-01T15:02:09.287Z,0.09
2022-12-01T15:05:12.610Z,-0.02
2022-12-01T15:07:41.837Z,-0.08
2022-12-01T15:10:22.271Z,-0.15
2022-12-01T15:12:50.352Z,-0.04
2022-12-01T15:15:26.273Z,-0.01
2022-12-01T15:17:55.782Z,0.02
2022-12-01T15:20:34.814Z,0.07
2022-12-01T15:23:08.178Z,-0.08
2022-12-01T15:25:37.054Z,-0.10
2022-12-01T15:28:13.309Z,-0.10
2022-12-01T15:30:42.589Z,-0.15
2022-12-01T15:33:27.842Z,-0.25
2022-12-01T15:35:56.693Z,-0.34
2022-12-01T15:38:28.431Z,-0.01
2022-12-01T15:43:43.393Z,-0.12
2022-12-01T15:46:19.363Z,-0.26
2022-12-01T15:48:45.901Z,-0.40
2022-12-01T15:51:27.171Z,-0.45
2022-12-01T15:53:58.199Z,-0.50
2022-12-01T15:56:26.178Z,-0.42
2022-12-01T15:58:57.009Z,-0.55
2022-12-01T16:01:29.831Z,-0.54
2022-12-01T16:04:03.856Z,-0.66
2022-12-01T16:06:33.224Z,-0.70
2022-12-01T16:09:25.695Z,-0.45
2022-12-01T16:12:16.574Z,-0.54
2022-12-01T16:15:01.467Z,-0.60
2022-12-01T16:17:40.928Z,-0.54
2022-12-01T16:20:31.051Z,-0.65
2022-12-01T16:23:03.931Z,-0.41
2022-12-01T16:25:43.617Z,-0.59
2022-12-01T16:28:23.173Z,-0.61
2022-12-01T16:30:50.518Z,-0.60
2022-12-01T16:33:21.869Z,-0.60
2022-12-01T16:35:49.029Z,-0.62
2022-12-01T16:38:23.786Z,-0.68
2022-12-01T16:40:59.088Z,-0.36
2022-12-01T16:43:27.465Z,-0.60
2022-12-01T16:46:03.329Z,-0.64
2022-12-01T16:48:31.311Z,-0.71
2022-12-01T16:51:02.994Z,-0.72
2022-12-01T16:53:29.516Z,-0.69
2022-12-01T16:55:59.890Z,-0.78
2022-12-01T16:58:26.674Z,-0.84
2022-12-01T17:00:53.765Z,-0.77
2022-12-01T17:03:23.742Z,-0.75
2022-12-01T17:05:50.853Z,-0.90
2022-12-01T17:08:17.801Z,-0.91
2022-12-01T17:10:48.304Z,-0.80
2022-12-01T17:13:14.922Z,-0.84
2022-12-01T17:15:46.026Z,-0.95
2022-12-01T17:18:13.806Z,-1.07
2022-12-01T17:20:40.326Z,-0.88
2022-12-01T17:23:07.407Z,-0.97
2022-12-01T17:25:34.285Z,-1.09
2022-12-01T17:28:01.987Z,-0.98
2022-12-01T17:30:28.530Z,-1.14
2022-12-01T17:32:54.996Z,-1.17
2022-12-01T17:35:25.017Z,-1.24
2022-12-01T17:37:51.529Z,-1.14
2022-12-01T17:40:18.226Z,-1.20
2022-12-01T17:42:50.152Z,-1.13
2022-12-01T17:45:18.191Z,-1.24
2022-12-01T17:47:44.822Z,-1.22
2022-12-01T17:50:11.620Z,-1.22
2022-12-01T17:52:38.215Z,-1.30
2022-12-01T17:55:05.173Z,-1.21
2022-12-01T17:57:31.654Z,-1.16
2022-12-01T17:59:58.192Z,-1.33
2022-12-01T18:02:24.721Z,-1.25
2022-12-01T18:04:51.586Z,-1.47
2022-12-01T18:07:18.327Z,-1.39
2022-12-01T18:09:45.394Z,-1.32
2022-12-01T18:12:12.166Z,-1.52
2022-12-01T18:14:38.978Z,-1.39
2022-12-01T18:17:05.947Z,-1.30
2022-12-01T18:19:32.872Z,-1.29
2022-12-01T18:21:59.698Z,-1.41
2022-12-01T18:24:26.237Z,-1.45
2022-12-01T18:26:55.174Z,-1.51
2022-12-01T18:29:30.670Z,-1.58
2022-12-01T18:31:58.754Z,-1.54
2022-12-01T18:34:26.621Z,-1.65
2022-12-01T18:36:53.111Z,-1.65
2022-12-01T18:39:19.771Z,-1.64
2022-12-01T18:41:46.550Z,-1.64
2022-12-01T18:44:13.248Z,-1.56
2022-12-01T18:46:39.910Z,-1.53
2022-12-01T18:49:09.116Z,-1.59
2022-12-01T18:51:37.547Z,-1.50
2022-12-01T18:54:06.254Z,-1.60
2022-12-01T18:56:33.491Z,-1.61
2022-12-01T18:59:02.571Z,-1.59
2022-12-01T19:01:32.415Z,-1.65
2022-12-01T19:04:00.242Z,-1.77
2022-12-01T19:06:28.652Z,-1.63
2022-12-01T19:08:56.787Z,-1.51
2022-12-01T19:11:23.266Z,-1.56
2022-12-01T19:13:50.055Z,-1.57
2022-12-01T19:16:18.878Z,-1.72
2022-12-01T19:18:46.043Z,-1.64
2022-12-01T19:21:15.677Z,-1.65
2022-12-01T19:23:43.176Z,-1.69
2022-12-01T19:26:18.169Z,-1.68
2022-12-01T19:28:45.827Z,-1.70
2022-12-01T19:31:16.508Z,-1.68
2022-12-01T19:33:43.283Z,-1.64
2022-12-01T19:36:15.364Z,-1.64
2022-12-01T19:38:42.146Z,-1.75
2022-12-01T19:41:09.730Z,-1.65
2022-12-01T19:43:37.306Z,-1.52
2022-12-01T19:46:15.519Z,-1.69
2022-12-01T19:48:42.394Z,-1.59
2022-12-01T19:51:26.807Z,-1.64
2022-12-01T19:53:54.419Z,-1.50
2022-12-01T19:56:21.822Z,-1.59
2022-12-01T19:58:48.793Z,-1.61
2022-12-01T20:01:17.435Z,-1.59
2022-12-01T20:03:48.967Z,-1.59
2022-12-01T20:06:18.818Z,-1.55
2022-12-01T20:08:45.822Z,-1.70
2022-12-01T20:11:12.602Z,-1.62
2022-12-01T20:13:41.383Z,-1.50
2022-12-01T20:16:11.260Z,-1.66
2022-12-01T20:18:38.662Z,-1.68
2022-12-01T20:21:08.422Z,-1.63
2022-12-01T20:23:36.214Z,-1.76
2022-12-01T20:26:05.939Z,-1.70
2022-12-01T20:28:33.395Z,-1.53
2022-12-01T20:31:00.144Z,-1.67
2022-12-01T20:33:27.727Z,-1.70
2022-12-01T20:35:54.638Z,-1.77
2022-12-01T20:38:27.113Z,-1.76
2022-12-01T20:40:54.458Z,-1.71
2022-12-01T20:43:21.008Z,-1.84
2022-12-01T20:45:47.644Z,-1.81
2022-12-01T20:48:14.284Z,-1.72
2022-12-01T20:50:40.868Z,-1.75
2022-12-01T20:53:07.419Z,-1.78
2022-12-01T20:55:36.500Z,-1.82
2022-12-01T20:58:05.410Z,-1.79
2022-12-01T21:00:32.090Z,-1.74
2022-12-01T21:02:58.824Z,-1.82
2022-12-01T21:05:27.507Z,-1.75
2022-12-01T21:07:54.509Z,-1.91
2022-12-01T21:10:21.182Z,-1.77
2022-12-01T21:13:10.154Z,-1.81
2022-12-01T21:15:46.313Z,-1.86
2022-12-01T21:18:29.807Z,-1.84
2022-12-01T21:21:05.312Z,-1.86
2022-12-01T21:23:31.872Z,-1.92
2022-12-01T21:25:58.354Z,-1.90
2022-12-01T21:28:26.289Z,-1.98
2022-12-01T21:31:07.866Z,-2.03
2022-12-01T21:33:36.993Z,-1.63
2022-12-01T21:36:13.872Z,-1.84
2022-12-01T21:38:42.634Z,-2.06
2022-12-01T21:41:18.658Z,-2.02
2022-12-01T21:43:45.257Z,-1.99
2022-12-01T21:46:16.211Z,-2.03
2022-12-01T21:48:43.963Z,-2.10
2022-12-01T21:51:13.907Z,-1.92
2022-12-01T21:53:41.022Z,-1.92
2022-12-01T21:56:19.294Z,-1.93
2022-12-01T21:58:45.997Z,-1.99
2022-12-01T22:01:23.240Z,-2.07
2022-12-01T22:03:50.121Z,-2.03
2022-12-01T22:06:32.740Z,-2.07
2022-12-01T22:09:13.899Z,-1.92
2022-12-01T22:11:42.996Z,-1.87
2022-12-01T22:14:09.433Z,-1.88
2022-12-01T22:16:40.468Z,-1.91
2022-12-01T22:19:31.305Z,-2.02
2022-12-01T22:22:08.857Z,-2.02
2022-12-01T22:24:40.073Z,-1.97
2022-12-01T22:27:35.230Z,-2.12
2022-12-01T22:30:16.637Z,-2.02
2022-12-01T22:33:03.824Z,-2.14
2022-12-01T22:35:49.903Z,-2.07
2022-12-01T22:38:24.927Z,-2.22
2022-12-01T22:41:12.199Z,-2.14
2022-12-01T22:43:54.920Z,-2.09
2022-12-01T22:46:22.934Z,-2.04
2022-12-01T22:48:55.207Z,-2.19
2022-12-01T22:51:47.752Z,-2.21
2022-12-01T22:54:14.263Z,-2.23
2022-12-01T22:56:46.470Z,-2.20
2022-12-01T22:59:22.175Z,-2.35
2022-12-01T23:01:55.153Z,-2.28
2022-12-01T23:04:42.033Z,-2.27
2022-12-01T23:07:30.746Z,-2.25
2022-12-01T23:10:20.584Z,-2.39
2022-12-01T23:12:49.709Z,-2.21
2022-12-01T23:15:32.255Z,-2.36
2022-12-01T23:18:08.474Z,-2.38
2022-12-01T23:20:36.264Z,-2.40
2022-12-01T23:23:14.170Z,-2.36
2022-12-01T23:25:41.976Z,-2.48
2022-12-01T23:28:09.949Z,-2.48
2022-12-01T23:30:38.960Z,-2.47
2022-12-01T23:33:14.742Z,-2.32
2022-12-01T23:36:04.950Z,-2.38
2022-12-01T23:38:34.794Z,-2.50
2022-12-01T23:41:04.450Z,-2.44
2022-12-01T23:43:38.867Z,-2.44
2022-12-01T23:46:10.017Z,-2.56
2022-12-01T23:48:38.683Z,-2.61
2022-12-01T23:51:15.880Z,-2.69
2022-12-01T23:53:43.087Z,-2.67
2022-12-01T23:56:18.789Z,-2.57
2022-12-01T23:58:45.398Z,-2.70
